createdAt,value
2022-11-20T00:01:12.014Z,102014.94
2022-11-20T00:03:40.313Z,102014.09
2022-11-20T00:06:10.995Z,102015.78
2022-11-20T00:08:39.327Z,102009.78
2022-11-20T00:11:14.216Z,102012.38
2022-11-20T00:13:43.816Z,102008.06
2022-11-20T00:16:17.623Z,101995.19
2022-11-20T00:18:46.364Z,101991.72
2022-11-20T00:21:16.190Z,101994.28
2022-11-20T00:23:44.780Z,101990.91
2022-11-20T00:26:14.708Z,101983.22
2022-11-20T00:28:43.158Z,101984.94
2022-11-20T00:31:14.894Z,101976.31
2022-11-20T00:33:43.542Z,101972.94
2022-11-20T00:36:13.786Z,101979.84
2022-11-20T00:38:41.749Z,101973.03
2022-11-20T00:41:11.860Z,101976.44
2022-11-20T00:43:39.794Z,101963.63
2022-11-20T00:46:09.241Z,101952.41
2022-11-20T00:48:38.742Z,101951.56
2022-11-20T00:51:06.887Z,101948.09
2022-11-20T00:53:34.787Z,101946.38
2022-11-20T00:56:05.310Z,101952.47
2022-11-20T00:58:35.143Z,101952.44
2022-11-20T01:01:04.194Z,101947.25
2022-11-20T01:03:34.278Z,101948.06
2022-11-20T01:06:04.570Z,101953.28
2022-11-20T01:08:33.830Z,101950.69
2022-11-20T01:11:03.547Z,101947.25
2022-11-20T01:13:41.927Z,101943.03
2022-11-20T01:16:11.931Z,101943.00
2022-11-20T01:18:41.749Z,101933.53
2022-11-20T01:21:14.122Z,101933.50
2022-11-20T01:23:43.577Z,101936.94
2022-11-20T01:26:13.795Z,101934.34
2022-11-20T01:28:42.341Z,101930.09
2022-11-20T01:31:15.379Z,101934.34
2022-11-20T01:33:44.241Z,101940.31
2022-11-20T01:36:14.668Z,101934.34
2022-11-20T01:38:42.603Z,101928.34
2022-11-20T01:41:11.529Z,101932.63
2022-11-20T01:43:38.460Z,101932.63
2022-11-20T01:46:17.983Z,101929.22
2022-11-20T01:48:53.482Z,101924.13
2022-11-20T01:51:29.690Z,101923.19
2022-11-20T01:54:00.897Z,101909.44
2022-11-20T01:56:30.167Z,101916.34
2022-11-20T01:59:03.094Z,101903.47
2022-11-20T02:01:31.143Z,101899.22
2022-11-20T02:04:00.508Z,101897.44
2022-11-20T02:06:33.280Z,101894.84
2022-11-20T02:09:01.174Z,101895.75
2022-11-20T02:11:29.057Z,101892.34
2022-11-20T02:13:56.815Z,101889.75
2022-11-20T02:16:27.256Z,101880.38
2022-11-20T02:18:56.962Z,101886.38
2022-11-20T02:21:44.360Z,101886.44
2022-11-20T02:24:16.151Z,101876.97
2022-11-20T02:26:49.670Z,101874.44
2022-11-20T02:29:21.148Z,101864.13
2022-11-20T02:31:49.532Z,101856.44
2022-11-20T02:34:17.405Z,101854.72
2022-11-20T02:36:46.694Z,101855.63
2022-11-20T02:39:18.916Z,101857.38
2022-11-20T02:41:46.979Z,101843.63
2022-11-20T02:44:14.875Z,101843.66
2022-11-20T02:46:42.742Z,101848.78
2022-11-20T02:49:10.637Z,101840.22
2022-11-20T02:51:38.538Z,101838.50
2022-11-20T02:54:06.561Z,101829.09
2022-11-20T02:56:35.997Z,101831.66
2022-11-20T02:59:03.854Z,101831.69
2022-11-20T03:01:31.821Z,101828.19
2022-11-20T03:03:59.815Z,101813.66
2022-11-20T03:06:27.752Z,101821.38
2022-11-20T03:08:55.691Z,101823.94
2022-11-20T03:11:23.567Z,101817.03
2022-11-20T03:13:52.856Z,101809.28
2022-11-20T03:16:23.086Z,101815.31
2022-11-20T03:18:51.547Z,101814.47
2022-11-20T03:21:19.486Z,101808.50
2022-11-20T03:23:47.754Z,101808.47
2022-11-20T03:26:18.114Z,101803.38
2022-11-20T03:28:49.552Z,101797.34
2022-11-20T03:31:20.494Z,101797.38
2022-11-20T03:33:48.503Z,101792.28
2022-11-20T03:36:18.598Z,101793.09
2022-11-20T03:38:46.675Z,101794.03
2022-11-20T03:41:17.246Z,101802.53
2022-11-20T03:43:50.055Z,101790.53
2022-11-20T03:46:19.480Z,101794.03
2022-11-20T03:48:51.651Z,101786.28
2022-11-20T03:51:24.291Z,101785.44
2022-11-20T03:53:54.620Z,101791.50
2022-11-20T03:56:25.318Z,101773.38
2022-11-20T03:58:53.653Z,101767.38
2022-11-20T04:01:24.645Z,101772.47
2022-11-20T04:03:54.490Z,101764.81
2022-11-20T04:06:24.313Z,101764.81
2022-11-20T04:08:53.990Z,101760.53
2022-11-20T04:11:24.635Z,101753.59
2022-11-20T04:13:54.746Z,101761.34
2022-11-20T04:16:27.290Z,101757.09
2022-11-20T04:18:56.268Z,101751.03
2022-11-20T04:21:25.306Z,101749.28
2022-11-20T04:23:54.839Z,101749.25
2022-11-20T04:26:24.304Z,101737.25
2022-11-20T04:28:52.313Z,101745.03
2022-11-20T04:31:23.619Z,101739.81
2022-11-20T04:33:52.917Z,101721.81
2022-11-20T04:36:22.855Z,101712.34
2022-11-20T04:38:56.858Z,101717.53
2022-11-20T04:41:27.065Z,101708.16
2022-11-20T04:44:00.992Z,101709.00
2022-11-20T04:46:29.972Z,101714.16
2022-11-20T04:48:59.709Z,101720.13
2022-11-20T04:51:27.991Z,101720.97
2022-11-20T04:53:56.222Z,101717.53
2022-11-20T04:56:24.411Z,101710.69
2022-11-20T04:58:52.577Z,101709.81
2022-11-20T05:01:22.730Z,101714.97
2022-11-20T05:03:51.295Z,101709.81
2022-11-20T05:06:22.559Z,101715.03
2022-11-20T05:08:50.531Z,101696.19
2022-11-20T05:11:20.939Z,101696.97
2022-11-20T05:13:49.074Z,101692.75
2022-11-20T05:16:19.308Z,101699.56
2022-11-20T05:18:47.241Z,101692.81
2022-11-20T05:21:16.069Z,101691.91
2022-11-20T05:23:46.417Z,101683.28
2022-11-20T05:26:16.018Z,101681.53
2022-11-20T05:28:44.199Z,101689.22
2022-11-20T05:31:14.138Z,101694.31
2022-11-20T05:33:42.821Z,101682.34
2022-11-20T05:36:12.180Z,101683.16
2022-11-20T05:38:40.299Z,101672.84
2022-11-20T05:41:11.886Z,101661.66
2022-11-20T05:43:41.528Z,101659.06
2022-11-20T05:46:11.444Z,101666.75
2022-11-20T05:48:40.401Z,101659.94
2022-11-20T05:51:10.350Z,101660.78
2022-11-20T05:53:41.373Z,101657.31
2022-11-20T05:56:16.404Z,101655.53
2022-11-20T05:58:44.709Z,101646.16
2022-11-20T06:01:14.730Z,101638.41
2022-11-20T06:03:46.912Z,101641.88
2022-11-20T06:06:15.637Z,101634.97
2022-11-20T06:08:44.167Z,101628.91
2022-11-20T06:11:15.108Z,101633.25
2022-11-20T06:13:43.479Z,101631.50
2022-11-20T06:16:12.540Z,101622.03
2022-11-20T06:18:40.894Z,101627.28
2022-11-20T06:21:11.048Z,101622.16
2022-11-20T06:23:39.053Z,101620.56
2022-11-20T06:26:08.713Z,101611.06
2022-11-20T06:28:38.270Z,101610.19
2022-11-20T06:31:07.223Z,101600.75
2022-11-20T06:33:35.350Z,101613.63
2022-11-20T06:36:10.094Z,101617.13
2022-11-20T06:38:39.192Z,101608.53
2022-11-20T06:41:08.146Z,101598.19
2022-11-20T06:43:37.405Z,101603.34
2022-11-20T06:46:05.468Z,101588.75
2022-11-20T06:48:33.601Z,101590.44
2022-11-20T06:51:01.521Z,101591.25
2022-11-20T06:53:29.426Z,101598.94
2022-11-20T06:55:58.534Z,101600.72
2022-11-20T06:58:29.208Z,101603.31
2022-11-20T07:01:01.787Z,101595.56
2022-11-20T07:03:30.326Z,101596.34
2022-11-20T07:05:58.347Z,101594.63
2022-11-20T07:08:27.034Z,101597.16
2022-11-20T07:10:55.377Z,101595.50
2022-11-20T07:13:23.257Z,101590.25
2022-11-20T07:15:51.200Z,101594.53
2022-11-20T07:18:20.513Z,101585.91
2022-11-20T07:20:48.631Z,101586.72
2022-11-20T07:23:16.559Z,101587.56
2022-11-20T07:25:44.440Z,101589.28
2022-11-20T07:28:12.780Z,101584.97
2022-11-20T07:30:40.630Z,101584.06
2022-11-20T07:33:08.518Z,101584.06
2022-11-20T07:35:37.941Z,101573.72
2022-11-20T07:38:05.776Z,101569.34
2022-11-20T07:40:33.659Z,101558.19
2022-11-20T07:43:01.532Z,101553.03
2022-11-20T07:45:29.386Z,101553.88
2022-11-20T07:47:57.502Z,101546.97
2022-11-20T07:50:25.394Z,101537.50
2022-11-20T07:52:54.645Z,101541.75
2022-11-20T07:55:22.514Z,101524.59
2022-11-20T07:57:56.631Z,101524.56
2022-11-20T08:00:24.781Z,101534.88
2022-11-20T08:02:52.807Z,101525.38
2022-11-20T08:05:20.733Z,101519.47
2022-11-20T08:07:48.777Z,101521.97
2022-11-20T08:10:18.754Z,101521.97
2022-11-20T08:13:05.666Z,101524.56
2022-11-20T08:15:33.986Z,101521.91
2022-11-20T08:18:29.456Z,101521.91
2022-11-20T08:20:51.569Z,101522.69
2022-11-20T08:23:19.497Z,101518.38
2022-11-20T08:25:52.213Z,101516.66
2022-11-20T08:28:22.109Z,101510.63
2022-11-20T08:30:51.173Z,101511.56
2022-11-20T08:33:19.781Z,101514.09
2022-11-20T08:35:47.782Z,101519.19
2022-11-20T08:38:15.981Z,101509.69
2022-11-20T08:41:03.822Z,101510.63
2022-11-20T08:43:34.641Z,101508.94
2022-11-20T08:46:02.634Z,101508.84
2022-11-20T08:48:30.673Z,101505.38
2022-11-20T08:51:00.454Z,101495.94
2022-11-20T08:53:28.795Z,101495.09
2022-11-20T08:55:56.871Z,101488.19
2022-11-20T08:58:24.834Z,101483.88
2022-11-20T09:00:54.495Z,101478.72
2022-11-20T09:03:22.489Z,101467.63
2022-11-20T09:05:50.553Z,101458.97
2022-11-20T09:08:18.412Z,101452.94
2022-11-20T09:10:46.264Z,101435.75
2022-11-20T09:13:14.513Z,101446.94
2022-11-20T09:15:42.439Z,101452.09
2022-11-20T09:18:11.867Z,101452.06
2022-11-20T09:20:39.779Z,101452.91
2022-11-20T09:23:07.746Z,101446.84
2022-11-20T09:25:35.582Z,101453.63
2022-11-20T09:28:03.523Z,101440.78
2022-11-20T09:30:31.981Z,101433.94
2022-11-20T09:32:59.875Z,101439.09
2022-11-20T09:35:29.126Z,101437.34
2022-11-20T09:37:57.216Z,101434.75
2022-11-20T09:40:27.945Z,101433.81
2022-11-20T09:43:01.382Z,101437.22
2022-11-20T09:45:45.339Z,101437.22
2022-11-20T09:48:48.890Z,101427.75
2022-11-20T09:51:28.440Z,101419.16
2022-11-20T09:54:08.074Z,101410.56
2022-11-20T09:56:39.944Z,101413.13
2022-11-20T09:59:14.359Z,101399.41
2022-11-20T10:01:44.202Z,101396.84
2022-11-20T10:04:18.777Z,101395.19
2022-11-20T10:07:17.281Z,101395.19
2022-11-20T10:09:53.264Z,101393.44
2022-11-20T10:12:29.454Z,101394.22
2022-11-20T10:15:15.039Z,101383.94
2022-11-20T10:18:10.709Z,101380.53
2022-11-20T10:20:48.427Z,101385.66
2022-11-20T10:23:34.846Z,101382.25
2022-11-20T10:26:05.731Z,101383.09
2022-11-20T10:28:57.088Z,101382.25
2022-11-20T10:31:34.992Z,101380.53
2022-11-20T10:34:12.479Z,101371.91
2022-11-20T10:36:46.286Z,101371.09
2022-11-20T10:39:24.927Z,101365.03
2022-11-20T10:41:54.755Z,101370.19
2022-11-20T10:44:38.608Z,101357.41
2022-11-20T10:47:07.534Z,101356.50
2022-11-20T10:49:36.924Z,101355.63
2022-11-20T10:52:15.193Z,101351.31
2022-11-20T10:54:51.743Z,101347.03
2022-11-20T10:57:33.687Z,101346.28
2022-11-20T11:00:07.975Z,101341.94
2022-11-20T11:02:42.150Z,101341.13
2022-11-20T11:05:24.474Z,101344.53
2022-11-20T11:07:56.546Z,101331.63
2022-11-20T11:10:31.313Z,101332.59
2022-11-20T11:12:59.311Z,101326.56
2022-11-20T11:15:29.944Z,101325.75
2022-11-20T11:17:58.474Z,101317.09
2022-11-20T11:20:28.236Z,101319.63
2022-11-20T11:22:59.758Z,101315.38
2022-11-20T11:25:32.099Z,101314.44
2022-11-20T11:28:02.104Z,101315.34
2022-11-20T11:30:33.016Z,101311.88
2022-11-20T11:33:08.573Z,101308.44
2022-11-20T11:35:49.937Z,101307.56
2022-11-20T11:38:23.712Z,101303.25
2022-11-20T11:40:56.229Z,101303.28
2022-11-20T11:43:43.924Z,101298.97
2022-11-20T11:46:28.023Z,101299.88
2022-11-20T11:49:00.149Z,101293.03
2022-11-20T11:51:34.623Z,101286.13
2022-11-20T11:54:04.604Z,101290.47
2022-11-20T11:56:35.527Z,101280.06
2022-11-20T11:59:10.512Z,101277.50
2022-11-20T12:01:45.192Z,101269.75
2022-11-20T12:04:21.454Z,101260.38
2022-11-20T12:07:00.442Z,101256.94
2022-11-20T12:09:40.363Z,101258.66
2022-11-20T12:12:15.091Z,101255.19
2022-11-20T12:14:46.238Z,101255.22
2022-11-20T12:17:16.021Z,101261.19
2022-11-20T12:19:44.265Z,101258.69
2022-11-20T12:22:23.828Z,101254.38
2022-11-20T12:25:01.429Z,101254.44
2022-11-20T12:27:53.497Z,101245.84
2022-11-20T12:30:23.399Z,101243.19
2022-11-20T12:33:29.295Z,101234.59
2022-11-20T12:36:09.945Z,101231.22
2022-11-20T12:38:59.747Z,101220.06
2022-11-20T12:42:02.949Z,101214.97
2022-11-20T12:45:03.920Z,101213.19
2022-11-20T12:47:41.517Z,101209.81
2022-11-20T12:50:18.149Z,101211.56
2022-11-20T12:52:50.454Z,101221.75
2022-11-20T12:55:36.004Z,101205.44
2022-11-20T12:58:12.847Z,101209.75
2022-11-20T13:00:50.167Z,101200.31
2022-11-20T13:03:50.193Z,101197.66
2022-11-20T13:06:20.179Z,101204.69
2022-11-20T13:08:55.546Z,101202.88
2022-11-20T13:11:33.263Z,101188.19
2022-11-20T13:14:21.355Z,101189.91
2022-11-20T13:16:57.726Z,101183.13
2022-11-20T13:19:28.150Z,101179.59
2022-11-20T13:21:56.500Z,101180.50
2022-11-20T13:24:28.601Z,101170.25
2022-11-20T13:27:08.243Z,101172.84
2022-11-20T13:29:37.985Z,101165.13
2022-11-20T13:32:18.144Z,101156.56
2022-11-20T13:34:55.813Z,101170.38
2022-11-20T13:37:32.348Z,101167.78
2022-11-20T13:40:23.290Z,101165.13
2022-11-20T13:42:59.175Z,101155.72
2022-11-20T13:45:30.147Z,101159.97
2022-11-20T13:48:01.687Z,101160.81
2022-11-20T13:50:42.701Z,101155.66
2022-11-20T13:53:25.650Z,101154.81
2022-11-20T13:56:01.396Z,101144.59
2022-11-20T13:58:46.899Z,101147.94
2022-11-20T14:01:19.644Z,101152.22
2022-11-20T14:04:06.709Z,101147.13
2022-11-20T14:06:41.558Z,101149.66
2022-11-20T14:09:13.776Z,101144.50
2022-11-20T14:11:49.008Z,101133.41
2022-11-20T14:14:20.185Z,101131.56
2022-11-20T14:16:49.263Z,101129.06
2022-11-20T14:19:29.898Z,101113.56
2022-11-20T14:22:13.245Z,101123.03
2022-11-20T14:24:41.131Z,101118.72
2022-11-20T14:27:15.350Z,101110.19
2022-11-20T14:29:44.791Z,101123.84
2022-11-20T14:32:13.560Z,101115.25
2022-11-20T14:34:45.688Z,101114.44
2022-11-20T14:37:17.244Z,101109.31
2022-11-20T14:39:51.249Z,101113.53
2022-11-20T14:42:21.430Z,101105.78
2022-11-20T14:44:49.952Z,101100.81
2022-11-20T14:47:23.110Z,101105.78
2022-11-20T14:49:54.035Z,101099.78
2022-11-20T14:52:24.848Z,101107.44
2022-11-20T14:54:54.374Z,101109.13
2022-11-20T14:57:25.018Z,101101.44
2022-11-20T14:59:53.744Z,101100.56
2022-11-20T15:02:21.741Z,101094.50
2022-11-20T15:04:50.017Z,101090.38
2022-11-20T15:07:30.350Z,101098.16
2022-11-20T15:10:03.087Z,101104.28
2022-11-20T15:12:32.155Z,101094.81
2022-11-20T15:15:01.191Z,101084.56
2022-11-20T15:17:29.229Z,101093.94
2022-11-20T15:19:57.868Z,101086.28
2022-11-20T15:22:25.869Z,101091.34
2022-11-20T15:24:55.893Z,101082.84
2022-11-20T15:27:23.830Z,101084.63
2022-11-20T15:29:51.693Z,101081.19
2022-11-20T15:32:19.560Z,101085.53
2022-11-20T15:34:47.427Z,101078.59
2022-11-20T15:37:15.868Z,101074.25
2022-11-20T15:39:43.755Z,101072.50
2022-11-20T15:42:12.987Z,101071.72
2022-11-20T15:44:41.025Z,101075.97
2022-11-20T15:47:10.742Z,101077.75
2022-11-20T15:49:38.721Z,101073.50
2022-11-20T15:52:06.641Z,101065.75
2022-11-20T15:54:34.532Z,101060.56
2022-11-20T15:57:03.981Z,101054.59
2022-11-20T15:59:33.293Z,101055.53
2022-11-20T16:02:01.203Z,101055.50
2022-11-20T16:04:29.070Z,101045.28
2022-11-20T16:06:57.730Z,101052.16
2022-11-20T16:09:25.716Z,101054.63
2022-11-20T16:11:53.589Z,101046.19
2022-11-20T16:14:39.611Z,101048.75
2022-11-20T16:17:08.858Z,101041.97
2022-11-20T16:19:36.924Z,101048.03
2022-11-20T16:22:04.893Z,101043.81
2022-11-20T16:24:32.824Z,101040.38
2022-11-20T16:27:00.705Z,101032.59
2022-11-20T16:29:28.951Z,101035.19
2022-11-20T16:31:56.910Z,101030.97
2022-11-20T16:34:26.463Z,101031.78
2022-11-20T16:36:54.937Z,101027.59
2022-11-20T16:39:24.032Z,101027.63
2022-11-20T16:41:52.145Z,101021.84
2022-11-20T16:44:20.049Z,101022.59
2022-11-20T16:46:47.963Z,101023.66
2022-11-20T16:49:16.230Z,101015.81
2022-11-20T16:51:45.692Z,101008.19
2022-11-20T16:54:17.868Z,101007.28
2022-11-20T16:56:48.588Z,101009.09
2022-11-20T16:59:16.634Z,101004.78
2022-11-20T17:01:44.549Z,101000.53
2022-11-20T17:04:12.730Z,100996.16
2022-11-20T17:06:44.916Z,100997.06
2022-11-20T17:09:14.555Z,101001.31
2022-11-20T17:11:42.443Z,100982.63
2022-11-20T17:14:12.653Z,100998.78
2022-11-20T17:16:40.969Z,100985.94
2022-11-20T17:19:09.053Z,100971.34
2022-11-20T17:21:37.669Z,100967.88
2022-11-20T17:24:08.498Z,100975.63
2022-11-20T17:26:39.095Z,100967.03
2022-11-20T17:29:10.103Z,100953.34
2022-11-20T17:31:39.132Z,100954.34
2022-11-20T17:34:07.922Z,100956.03
2022-11-20T17:36:39.556Z,100949.16
2022-11-20T17:39:10.322Z,100945.66
2022-11-20T17:41:40.126Z,100946.56
2022-11-20T17:44:08.488Z,100945.75
2022-11-20T17:46:39.439Z,100948.28
2022-11-20T17:49:07.640Z,100939.72
2022-11-20T17:51:36.364Z,100947.44
2022-11-20T17:54:07.414Z,100938.03
2022-11-20T17:56:54.139Z,100927.78
2022-11-20T17:59:23.541Z,100920.09
2022-11-20T18:01:51.597Z,100921.78
2022-11-20T18:04:19.542Z,100915.81
2022-11-20T18:06:47.486Z,100922.63
2022-11-20T18:09:15.584Z,100907.97
2022-11-20T18:11:44.157Z,100912.31
2022-11-20T18:14:32.166Z,100897.72
2022-11-20T18:17:04.384Z,100902.03
2022-11-20T18:19:37.630Z,100879.88
2022-11-20T18:22:09.726Z,100872.16
2022-11-20T18:24:39.441Z,100878.16
2022-11-20T18:27:09.722Z,100873.03
2022-11-20T18:29:37.630Z,100878.22
2022-11-20T18:32:07.189Z,100864.66
2022-11-20T18:34:35.347Z,100862.09
2022-11-20T18:37:03.626Z,100864.66
2022-11-20T18:39:31.509Z,100857.84
2022-11-20T18:42:16.593Z,100863.16
2022-11-20T18:44:54.686Z,100859.88
2022-11-20T18:47:25.677Z,100851.34
2022-11-20T18:49:55.305Z,100843.69
2022-11-20T18:52:26.531Z,100861.84
2022-11-20T18:54:55.259Z,100859.38
2022-11-20T18:57:25.894Z,100869.63
2022-11-20T18:59:54.742Z,100857.78
2022-11-20T19:02:24.469Z,100851.00
2022-11-20T19:04:54.213Z,100860.44
2022-11-20T19:07:22.561Z,100851.91
2022-11-20T19:09:53.228Z,100864.69
2022-11-20T19:12:21.966Z,100858.72
2022-11-20T19:14:49.973Z,100854.34
2022-11-20T19:17:18.389Z,100851.72
2022-11-20T19:19:49.866Z,100859.41
2022-11-20T19:22:17.970Z,100862.78
2022-11-20T19:24:45.928Z,100873.06
2022-11-20T19:27:13.818Z,100872.09
2022-11-20T19:29:41.811Z,100866.06
2022-11-20T19:32:09.706Z,100871.16
2022-11-20T19:34:38.116Z,100881.31
2022-11-20T19:37:07.772Z,100872.75
2022-11-20T19:39:37.196Z,100880.41
2022-11-20T19:42:05.175Z,100876.81
2022-11-20T19:44:33.434Z,100877.63
2022-11-20T19:47:04.016Z,100876.72
2022-11-20T19:49:32.875Z,100877.50
2022-11-20T19:52:00.917Z,100864.69
2022-11-20T19:54:31.916Z,100875.78
2022-11-20T19:57:01.217Z,100867.19
2022-11-20T19:59:29.314Z,100869.72
2022-11-20T20:01:58.606Z,100872.25
2022-11-20T20:04:27.526Z,100877.25
2022-11-20T20:06:56.531Z,100881.31
2022-11-20T20:09:26.918Z,100876.03
2022-11-20T20:11:56.789Z,100873.41
2022-11-20T20:14:24.630Z,100873.38
2022-11-20T20:16:52.534Z,100875.94
2022-11-20T20:19:20.441Z,100883.56
2022-11-20T20:21:49.795Z,100889.59
2022-11-20T20:24:18.777Z,100893.78
2022-11-20T20:26:46.666Z,100897.22
2022-11-20T20:29:20.654Z,100893.75
2022-11-20T20:31:48.602Z,100893.69
2022-11-20T20:34:17.504Z,100893.66
2022-11-20T20:36:45.562Z,100887.59
2022-11-20T20:39:13.644Z,100884.25
2022-11-20T20:41:41.477Z,100900.44
2022-11-20T20:44:26.990Z,100902.97
2022-11-20T20:46:56.583Z,100904.63
2022-11-20T20:49:24.722Z,100907.19
2022-11-20T20:51:53.004Z,100899.53
2022-11-20T20:54:21.042Z,100901.19
2022-11-20T20:56:48.888Z,100900.38
2022-11-20T20:59:17.006Z,100906.31
2022-11-20T21:01:44.991Z,100909.69
2022-11-20T21:04:14.254Z,100909.69
2022-11-20T21:06:42.499Z,100909.59
2022-11-20T21:09:10.778Z,100911.31
2022-11-20T21:11:39.987Z,100906.13
2022-11-20T21:14:08.581Z,100909.59
2022-11-20T21:16:44.521Z,100918.22
2022-11-20T21:19:14.569Z,100905.34
2022-11-20T21:22:00.158Z,100903.63
2022-11-20T21:24:28.949Z,100909.59
2022-11-20T21:26:57.325Z,100903.69
2022-11-20T21:29:27.110Z,100911.34
2022-11-20T21:31:55.045Z,100907.03
2022-11-20T21:34:25.970Z,100909.59
2022-11-20T21:36:54.224Z,100911.31
2022-11-20T21:39:23.241Z,100909.59
2022-11-20T21:41:51.265Z,100908.75
2022-11-20T21:44:34.320Z,100912.13
2022-11-20T21:47:02.552Z,100910.47
2022-11-20T21:49:31.824Z,100917.28
2022-11-20T21:51:59.942Z,100917.34
2022-11-20T21:54:28.190Z,100913.09
2022-11-20T21:56:56.600Z,100920.81
2022-11-20T21:59:24.863Z,100920.81
2022-11-20T22:01:52.833Z,100923.34
2022-11-20T22:04:22.952Z,100922.50
2022-11-20T22:06:52.585Z,100921.81
2022-11-20T22:09:20.643Z,100920.00
2022-11-20T22:11:48.847Z,100920.00
2022-11-20T22:14:22.053Z,100919.13
2022-11-20T22:16:52.597Z,100913.19
2022-11-20T22:19:22.626Z,100921.94
2022-11-20T22:21:52.883Z,100911.59
2022-11-20T22:24:23.510Z,100915.88
2022-11-20T22:26:52.826Z,100914.22
2022-11-20T22:29:22.084Z,100918.59
2022-11-20T22:31:52.509Z,100915.06
2022-11-20T22:34:20.844Z,100928.81
2022-11-20T22:36:49.438Z,100920.50
2022-11-20T22:39:18.878Z,100922.25
2022-11-20T22:41:47.425Z,100920.69
2022-11-20T22:44:16.676Z,100920.84
2022-11-20T22:46:45.635Z,100923.31
2022-11-20T22:49:16.321Z,100918.34
2022-11-20T22:51:44.401Z,100920.31
2022-11-20T22:54:13.468Z,100916.81
2022-11-20T22:56:43.228Z,100921.16
2022-11-20T22:59:11.757Z,100922.09
2022-11-20T23:01:40.182Z,100928.03
2022-11-20T23:04:11.545Z,100929.00
2022-11-20T23:06:40.134Z,100929.97
2022-11-20T23:09:09.367Z,100924.94
2022-11-20T23:11:37.475Z,100926.53
2022-11-20T23:14:08.885Z,100937.63
2022-11-20T23:16:37.049Z,100934.22
2022-11-20T23:19:07.288Z,100927.38
2022-11-20T23:21:37.173Z,100924.75
2022-11-20T23:24:06.427Z,100934.22
2022-11-20T23:26:37.677Z,100931.69
2022-11-20T23:29:09.404Z,100935.94
2022-11-20T23:31:37.805Z,100938.59
2022-11-20T23:34:06.491Z,100928.25
2022-11-20T23:36:34.826Z,100930.78
2022-11-20T23:39:02.917Z,100927.31
2022-11-20T23:41:32.216Z,100934.22
2022-11-20T23:44:00.133Z,100935.22
2022-11-20T23:46:29.423Z,100939.41
2022-11-20T23:48:57.358Z,100936.06
2022-11-20T23:51:25.380Z,100936.16
2022-11-20T23:53:53.813Z,100934.53
2022-11-20T23:56:21.685Z,100931.94
2022-11-20T23:58:49.588Z,100928.66
